Shaftsbury, Vermont
Current Conditions -  °F | °C
As of 12:54 AM on Monday 22 Dec 2014 (Local Time) from KDDH Reporting Station
Haze Haze  
Wind Chill: 28°   Ceiling: 3800
Heat Index: 28°   Visibility: 5mi
Dew Point: 25°   Wind: 0mph
Humidity: 88%   Direction: NA
Pressure: 30.32"   Gusts: NA
Location:  43.01°N, 73.19°W
Report Text: KDDH 220554Z AUTO 00000KT 5SM BR FEW029 OVC038 M02/M04 A3032 RMK AO2 SLP279 T10221039 11017 21022 58003
Loading
Personal Weather Stations






























Interactive Weather Map New forecast layout! Learn more

10-Day Weather Forecast

Advertisements
Track Severe Weather on mobile